AAL837 KMIA-MUHA
Flight info
| Callsign | AAL837 |
|---|---|
| Flight time | 0h 54m |
| Altitude | 26000 |
| Route | GLADZ4 LULLS Y196 CANOA ENTRY4 |
| Aircraft | B738/M-SDE2E3FGHIRWXY/LB1 |
Departure
| Time | 2026-05-06 23:37 |
|---|---|
| Airport | Miami International Airport (KMIA) |
Arrival
| Time | 2026-05-07 00:31 |
|---|---|
| Airport | José Martí International Airport (MUHA) |
| Time | Latitude | Longitude | Altitude | Speed | Heading |
|---|---|---|---|---|---|
| 2026-05-06 23:18 | 25.79818 | -80.28412 | 11 ft | 0 kts | 178° |
| 2026-05-06 23:28 | 25.79819 | -80.28412 | 11 ft | 1 kts | 178° |
| 2026-05-06 23:28 | 25.79834 | -80.28413 | 11 ft | 2 kts | 178° |
| 2026-05-06 23:28 | 25.79849 | -80.28412 | 11 ft | 2 kts | 193° |
| 2026-05-06 23:29 | 25.79863 | -80.28406 | 11 ft | 2 kts | 211° |
| 2026-05-06 23:29 | 25.79874 | -80.28396 | 11 ft | 2 kts | 229° |
| 2026-05-06 23:29 | 25.79883 | -80.28382 | 11 ft | 2 kts | 246° |
| 2026-05-06 23:29 | 25.79886 | -80.28368 | 11 ft | 1 kts | 263° |
| 2026-05-06 23:30 | 25.79887 | -80.28360 | 11 ft | 1 kts | 268° |
| 2026-05-06 23:30 | 25.79887 | -80.28359 | 11 ft | 0 kts | 268° |
| 2026-05-06 23:32 | 25.79887 | -80.28367 | 11 ft | 4 kts | 268° |
| 2026-05-06 23:32 | 25.79887 | -80.28410 | 11 ft | 5 kts | 290° |
| 2026-05-06 23:32 | 25.79928 | -80.28439 | 11 ft | 8 kts | 332° |
| 2026-05-06 23:32 | 25.79952 | -80.28505 | 11 ft | 10 kts | 307° |
| 2026-05-06 23:33 | 25.80020 | -80.28553 | 11 ft | 13 kts | 295° |
| 2026-05-06 23:33 | 25.80022 | -80.28664 | 11 ft | 15 kts | 268° |
| 2026-05-06 23:33 | 25.80016 | -80.28797 | 11 ft | 18 kts | 268° |
| 2026-05-06 23:33 | 25.80009 | -80.28951 | 11 ft | 21 kts | 268° |
| 2026-05-06 23:34 | 25.80003 | -80.29121 | 11 ft | 22 kts | 267° |
| 2026-05-06 23:34 | 25.79996 | -80.29286 | 11 ft | 21 kts | 267° |
| 2026-05-06 23:34 | 25.79989 | -80.29462 | 11 ft | 24 kts | 267° |
| 2026-05-06 23:34 | 25.79981 | -80.29650 | 11 ft | 24 kts | 268° |
| 2026-05-06 23:35 | 25.79973 | -80.29833 | 11 ft | 23 kts | 267° |
| 2026-05-06 23:35 | 25.79983 | -80.30006 | 11 ft | 22 kts | 287° |
| 2026-05-06 23:35 | 25.80053 | -80.30099 | 11 ft | 9 kts | 2° |
| 2026-05-06 23:35 | 25.80073 | -80.30058 | 11 ft | 2 kts | 87° |
| 2026-05-06 23:36 | 25.80073 | -80.30057 | 11 ft | 0 kts | 87° |
| 2026-05-06 23:36 | 25.80075 | -80.30010 | 11 ft | 28 kts | 87° |
| 2026-05-06 23:36 | 25.80098 | -80.29456 | 12 ft | 113 kts | 87° |
| 2026-05-06 23:36 | 25.80147 | -80.28338 | 148 ft | 170 kts | 87° |
| 2026-05-06 23:37 | 25.80238 | -80.27013 | 992 ft | 179 kts | 85° |
| 2026-05-06 23:37 | 25.80330 | -80.25647 | 1961 ft | 180 kts | 87° |
| 2026-05-06 23:37 | 25.80401 | -80.24269 | 2765 ft | 187 kts | 88° |
| 2026-05-06 23:37 | 25.80426 | -80.22819 | 3519 ft | 196 kts | 89° |
| 2026-05-06 23:38 | 25.80457 | -80.21256 | 4148 ft | 214 kts | 87° |
| 2026-05-06 23:38 | 25.80558 | -80.19569 | 4785 ft | 233 kts | 80° |
| 2026-05-06 23:38 | 25.81132 | -80.17843 | 5489 ft | 249 kts | 54° |
| 2026-05-06 23:38 | 25.82450 | -80.16565 | 6246 ft | 262 kts | 28° |
| 2026-05-06 23:39 | 25.84206 | -80.15915 | 7106 ft | 272 kts | 9° |
| 2026-05-06 23:39 | 25.86074 | -80.15759 | 8144 ft | 274 kts | 3° |
| 2026-05-06 23:39 | 25.87975 | -80.15723 | 9140 ft | 277 kts | 2° |
| 2026-05-06 23:39 | 25.89875 | -80.15881 | 10068 ft | 282 kts | 351° |
| 2026-05-06 23:40 | 25.91805 | -80.16430 | 10806 ft | 295 kts | 346° |
| 2026-05-06 23:40 | 25.93817 | -80.17158 | 11428 ft | 311 kts | 343° |
| 2026-05-06 23:40 | 25.95791 | -80.18234 | 12008 ft | 330 kts | 329° |
| 2026-05-06 23:40 | 25.97556 | -80.19964 | 12556 ft | 350 kts | 315° |
| 2026-05-06 23:41 | 25.98956 | -80.22295 | 13022 ft | 373 kts | 299° |
| 2026-05-06 23:41 | 25.99710 | -80.25113 | 13484 ft | 393 kts | 284° |
| 2026-05-06 23:41 | 26.00064 | -80.28123 | 14204 ft | 400 kts | 277° |
| 2026-05-06 23:41 | 26.00144 | -80.31224 | 15065 ft | 403 kts | 272° |
| 2026-05-06 23:42 | 26.00069 | -80.34321 | 15839 ft | 406 kts | 270° |
| 2026-05-06 23:42 | 25.99942 | -80.37431 | 16607 ft | 408 kts | 269° |
| 2026-05-06 23:42 | 25.99492 | -80.40559 | 17324 ft | 413 kts | 258° |
| 2026-05-06 23:42 | 25.98545 | -80.43571 | 18014 ft | 419 kts | 250° |
| 2026-05-06 23:43 | 25.97220 | -80.46490 | 18727 ft | 424 kts | 243° |
| 2026-05-06 23:43 | 25.95603 | -80.49191 | 19401 ft | 429 kts | 237° |
| 2026-05-06 23:43 | 25.93776 | -80.51831 | 20069 ft | 433 kts | 235° |
| 2026-05-06 23:43 | 25.91855 | -80.54452 | 20705 ft | 437 kts | 234° |
| 2026-05-06 23:44 | 25.89929 | -80.57041 | 21290 ft | 440 kts | 234° |
| 2026-05-06 23:44 | 25.87979 | -80.59674 | 21872 ft | 444 kts | 235° |
| 2026-05-06 23:44 | 25.86020 | -80.62347 | 22453 ft | 447 kts | 236° |
| 2026-05-06 23:44 | 25.84084 | -80.65016 | 23049 ft | 449 kts | 235° |
| 2026-05-06 23:45 | 25.82139 | -80.67718 | 23612 ft | 452 kts | 236° |
| 2026-05-06 23:45 | 25.80292 | -80.70521 | 24178 ft | 452 kts | 240° |
| 2026-05-06 23:45 | 25.78719 | -80.73528 | 24764 ft | 450 kts | 247° |
| 2026-05-06 23:45 | 25.77474 | -80.76693 | 25331 ft | 450 kts | 252° |
| 2026-05-06 23:46 | 25.76420 | -80.79982 | 25854 ft | 451 kts | 255° |
| 2026-05-06 23:46 | 25.75473 | -80.83292 | 26035 ft | 451 kts | 256° |
| 2026-05-06 23:46 | 25.74585 | -80.86572 | 26053 ft | 447 kts | 257° |
| 2026-05-06 23:46 | 25.73706 | -80.89889 | 26048 ft | 445 kts | 257° |
| 2026-05-06 23:47 | 25.72843 | -80.93162 | 26048 ft | 446 kts | 257° |
| 2026-05-06 23:47 | 25.71970 | -80.96452 | 26051 ft | 446 kts | 257° |
| 2026-05-06 23:47 | 25.71088 | -80.99748 | 26051 ft | 445 kts | 257° |
| 2026-05-06 23:47 | 25.70202 | -81.03040 | 26049 ft | 445 kts | 257° |
| 2026-05-06 23:48 | 25.69314 | -81.06316 | 26048 ft | 446 kts | 256° |
| 2026-05-06 23:48 | 25.68425 | -81.09579 | 26048 ft | 446 kts | 256° |
| 2026-05-06 23:48 | 25.67520 | -81.12888 | 26048 ft | 446 kts | 257° |
| 2026-05-06 23:48 | 25.66624 | -81.16162 | 26049 ft | 445 kts | 256° |
| 2026-05-06 23:49 | 25.65692 | -81.19421 | 26048 ft | 446 kts | 255° |
| 2026-05-06 23:49 | 25.64556 | -81.22595 | 26046 ft | 450 kts | 248° |
| 2026-05-06 23:49 | 25.62868 | -81.25537 | 26049 ft | 457 kts | 235° |
| 2026-05-06 23:49 | 25.60710 | -81.28113 | 26049 ft | 459 kts | 229° |
| 2026-05-06 23:50 | 25.58376 | -81.30534 | 26047 ft | 462 kts | 226° |
| 2026-05-06 23:50 | 25.53532 | -81.35235 | 26048 ft | 461 kts | 225° |
| 2026-05-06 23:50 | 25.51265 | -81.37403 | 26048 ft | 462 kts | 225° |
| 2026-05-06 23:51 | 25.48849 | -81.39723 | 26045 ft | 461 kts | 225° |
| 2026-05-06 23:51 | 25.46437 | -81.42055 | 26045 ft | 461 kts | 225° |
| 2026-05-06 23:51 | 25.44043 | -81.44383 | 26044 ft | 461 kts | 225° |
| 2026-05-06 23:51 | 25.41627 | -81.46744 | 26041 ft | 461 kts | 225° |
| 2026-05-06 23:52 | 25.39227 | -81.49099 | 26042 ft | 462 kts | 226° |
| 2026-05-06 23:52 | 25.36842 | -81.51445 | 26042 ft | 461 kts | 226° |
| 2026-05-06 23:52 | 25.34441 | -81.53809 | 26041 ft | 461 kts | 226° |
| 2026-05-06 23:52 | 25.32063 | -81.56153 | 26041 ft | 461 kts | 226° |
| 2026-05-06 23:53 | 25.29664 | -81.58518 | 26041 ft | 460 kts | 226° |
| 2026-05-06 23:53 | 25.27279 | -81.60867 | 26041 ft | 460 kts | 226° |
| 2026-05-06 23:53 | 25.24893 | -81.63219 | 26041 ft | 460 kts | 226° |
| 2026-05-06 23:53 | 25.22500 | -81.65576 | 26036 ft | 461 kts | 225° |
| 2026-05-06 23:54 | 25.20104 | -81.67915 | 26038 ft | 462 kts | 225° |
| 2026-05-06 23:54 | 25.17620 | -81.70171 | 26036 ft | 463 kts | 220° |
| 2026-05-06 23:54 | 25.14878 | -81.72040 | 26036 ft | 469 kts | 210° |
| 2026-05-06 23:54 | 25.11861 | -81.73483 | 26038 ft | 472 kts | 204° |
| 2026-05-06 23:55 | 25.08768 | -81.74691 | 26034 ft | 473 kts | 202° |
| 2026-05-06 23:55 | 25.05587 | -81.75807 | 26032 ft | 473 kts | 200° |
| 2026-05-06 23:55 | 25.02480 | -81.76846 | 26035 ft | 473 kts | 200° |
| 2026-05-06 23:55 | 24.99302 | -81.77903 | 26034 ft | 473 kts | 200° |
| 2026-05-06 23:56 | 24.96143 | -81.78965 | 26033 ft | 473 kts | 200° |
| 2026-05-06 23:56 | 24.93012 | -81.80035 | 26032 ft | 472 kts | 200° |
| 2026-05-06 23:56 | 24.89860 | -81.81129 | 26030 ft | 473 kts | 201° |
| 2026-05-06 23:56 | 24.86718 | -81.82232 | 26035 ft | 473 kts | 201° |
| 2026-05-06 23:57 | 24.83582 | -81.83342 | 26038 ft | 473 kts | 201° |
| 2026-05-06 23:57 | 24.80478 | -81.84446 | 26037 ft | 473 kts | 201° |
| 2026-05-06 23:57 | 24.77320 | -81.85572 | 26036 ft | 474 kts | 201° |
| 2026-05-06 23:57 | 24.74204 | -81.86686 | 26037 ft | 473 kts | 201° |
| 2026-05-06 23:58 | 24.71052 | -81.87813 | 26039 ft | 474 kts | 201° |
| 2026-05-06 23:58 | 24.67900 | -81.88940 | 26038 ft | 474 kts | 201° |
| 2026-05-06 23:58 | 24.64788 | -81.90054 | 26040 ft | 473 kts | 201° |
| 2026-05-06 23:58 | 24.61640 | -81.91180 | 26037 ft | 473 kts | 201° |
| 2026-05-06 23:59 | 24.58510 | -81.92298 | 26038 ft | 473 kts | 201° |
| 2026-05-06 23:59 | 24.55396 | -81.93446 | 26040 ft | 472 kts | 204° |
| 2026-05-06 23:59 | 24.52439 | -81.94942 | 26038 ft | 468 kts | 212° |
| 2026-05-06 23:59 | 24.49783 | -81.96945 | 26039 ft | 463 kts | 223° |
| 2026-05-07 00:00 | 24.47473 | -81.99438 | 26037 ft | 459 kts | 232° |
| 2026-05-07 00:00 | 24.45550 | -82.02176 | 26035 ft | 455 kts | 239° |
| 2026-05-07 00:00 | 24.43917 | -82.05129 | 26034 ft | 454 kts | 244° |
| 2026-05-07 00:00 | 24.42459 | -82.08201 | 26033 ft | 452 kts | 247° |
| 2026-05-07 00:01 | 24.41111 | -82.11284 | 26029 ft | 451 kts | 248° |
| 2026-05-07 00:01 | 24.39793 | -82.14401 | 26028 ft | 451 kts | 248° |
| 2026-05-07 00:01 | 24.38484 | -82.17520 | 26029 ft | 451 kts | 248° |
| 2026-05-07 00:01 | 24.37170 | -82.20632 | 26030 ft | 451 kts | 248° |
| 2026-05-07 00:02 | 24.35834 | -82.23776 | 26031 ft | 451 kts | 248° |
| 2026-05-07 00:02 | 24.34514 | -82.26849 | 26026 ft | 452 kts | 248° |
| 2026-05-07 00:02 | 24.33165 | -82.29967 | 26028 ft | 453 kts | 248° |
| 2026-05-07 00:02 | 24.31820 | -82.33058 | 26032 ft | 452 kts | 247° |
| 2026-05-07 00:03 | 24.30459 | -82.36170 | 26032 ft | 451 kts | 247° |
| 2026-05-07 00:03 | 24.29103 | -82.39261 | 26031 ft | 451 kts | 247° |
| 2026-05-07 00:03 | 24.27746 | -82.42348 | 26031 ft | 451 kts | 247° |
| 2026-05-07 00:03 | 24.26379 | -82.45452 | 26035 ft | 452 kts | 247° |
| 2026-05-07 00:04 | 24.25032 | -82.48508 | 26035 ft | 450 kts | 247° |
| 2026-05-07 00:04 | 24.23656 | -82.51626 | 26034 ft | 451 kts | 247° |
| 2026-05-07 00:04 | 24.22304 | -82.54688 | 26033 ft | 452 kts | 247° |
| 2026-05-07 00:04 | 24.20932 | -82.57790 | 26032 ft | 451 kts | 247° |
| 2026-05-07 00:05 | 24.19562 | -82.60885 | 26030 ft | 452 kts | 247° |
| 2026-05-07 00:05 | 24.18192 | -82.63979 | 26031 ft | 452 kts | 247° |
| 2026-05-07 00:05 | 24.16836 | -82.67036 | 26032 ft | 451 kts | 246° |
| 2026-05-07 00:05 | 24.15473 | -82.70109 | 26032 ft | 452 kts | 246° |
| 2026-05-07 00:06 | 24.14098 | -82.73208 | 26033 ft | 452 kts | 246° |
| 2026-05-07 00:06 | 24.12730 | -82.76287 | 26035 ft | 451 kts | 246° |
| 2026-05-07 00:06 | 24.11349 | -82.79393 | 26033 ft | 451 kts | 246° |
| 2026-05-07 00:06 | 24.09989 | -82.82452 | 26031 ft | 452 kts | 246° |
| 2026-05-07 00:07 | 24.08622 | -82.85525 | 26010 ft | 452 kts | 246° |
| 2026-05-07 00:07 | 24.07241 | -82.88627 | 25695 ft | 445 kts | 246° |
| 2026-05-07 00:07 | 24.05886 | -82.91590 | 25251 ft | 436 kts | 245° |
| 2026-05-07 00:07 | 24.04389 | -82.94432 | 24809 ft | 430 kts | 238° |
| 2026-05-07 00:08 | 24.02530 | -82.96972 | 24363 ft | 425 kts | 229° |
| 2026-05-07 00:08 | 24.00300 | -82.99097 | 23907 ft | 421 kts | 218° |
| 2026-05-07 00:08 | 23.97810 | -83.00713 | 23462 ft | 417 kts | 207° |
| 2026-05-07 00:08 | 23.95116 | -83.01840 | 23020 ft | 412 kts | 198° |
| 2026-05-07 00:09 | 23.92375 | -83.02564 | 22580 ft | 407 kts | 192° |
| 2026-05-07 00:09 | 23.89603 | -83.03070 | 22147 ft | 401 kts | 187° |
| 2026-05-07 00:09 | 23.86812 | -83.03194 | 21714 ft | 396 kts | 178° |
| 2026-05-07 00:09 | 23.84076 | -83.02966 | 21286 ft | 391 kts | 173° |
| 2026-05-07 00:10 | 23.81397 | -83.02580 | 20859 ft | 386 kts | 171° |
| 2026-05-07 00:10 | 23.78761 | -83.02141 | 20433 ft | 382 kts | 171° |
| 2026-05-07 00:10 | 23.76160 | -83.01698 | 20006 ft | 378 kts | 171° |
| 2026-05-07 00:10 | 23.73583 | -83.01272 | 19578 ft | 374 kts | 171° |
| 2026-05-07 00:11 | 23.71026 | -83.00865 | 19153 ft | 370 kts | 171° |
| 2026-05-07 00:11 | 23.68474 | -83.00472 | 18723 ft | 367 kts | 171° |
| 2026-05-07 00:11 | 23.65972 | -83.00096 | 18299 ft | 363 kts | 171° |
| 2026-05-07 00:11 | 23.63452 | -82.99725 | 17868 ft | 360 kts | 171° |
| 2026-05-07 00:12 | 23.60978 | -82.99366 | 17446 ft | 358 kts | 171° |
| 2026-05-07 00:12 | 23.58507 | -82.99010 | 17025 ft | 355 kts | 171° |
| 2026-05-07 00:12 | 23.56078 | -82.98662 | 16606 ft | 352 kts | 171° |
| 2026-05-07 00:12 | 23.53672 | -82.98317 | 16189 ft | 350 kts | 170° |
| 2026-05-07 00:13 | 23.51249 | -82.97969 | 15764 ft | 347 kts | 170° |
| 2026-05-07 00:13 | 23.48872 | -82.97626 | 15345 ft | 345 kts | 169° |
| 2026-05-07 00:13 | 23.46470 | -82.97282 | 14915 ft | 343 kts | 169° |
| 2026-05-07 00:13 | 23.44117 | -82.96946 | 14495 ft | 341 kts | 169° |
| 2026-05-07 00:14 | 23.41795 | -82.96614 | 14071 ft | 338 kts | 169° |
| 2026-05-07 00:14 | 23.39465 | -82.96282 | 13703 ft | 331 kts | 168° |
| 2026-05-07 00:14 | 23.37208 | -82.95961 | 13348 ft | 324 kts | 168° |
| 2026-05-07 00:14 | 23.34996 | -82.95645 | 12972 ft | 319 kts | 168° |
| 2026-05-07 00:15 | 23.32803 | -82.95332 | 12597 ft | 314 kts | 168° |
| 2026-05-07 00:15 | 23.30631 | -82.95021 | 12219 ft | 310 kts | 168° |
| 2026-05-07 00:15 | 23.28517 | -82.94718 | 11845 ft | 306 kts | 168° |
| 2026-05-07 00:15 | 23.26413 | -82.94418 | 11467 ft | 302 kts | 168° |
| 2026-05-07 00:16 | 23.24352 | -82.94123 | 11092 ft | 298 kts | 168° |
| 2026-05-07 00:16 | 23.22297 | -82.93829 | 10713 ft | 295 kts | 169° |
| 2026-05-07 00:16 | 23.20269 | -82.93538 | 10333 ft | 292 kts | 169° |
| 2026-05-07 00:16 | 23.18279 | -82.93253 | 9958 ft | 289 kts | 169° |
| 2026-05-07 00:17 | 23.16286 | -82.92969 | 9576 ft | 286 kts | 169° |
| 2026-05-07 00:17 | 23.14326 | -82.92689 | 9197 ft | 283 kts | 169° |
| 2026-05-07 00:17 | 23.12388 | -82.92413 | 8819 ft | 280 kts | 169° |
| 2026-05-07 00:17 | 23.10458 | -82.92139 | 8439 ft | 277 kts | 169° |
| 2026-05-07 00:18 | 23.08553 | -82.91775 | 8059 ft | 274 kts | 164° |
| 2026-05-07 00:18 | 23.06738 | -82.91234 | 7679 ft | 271 kts | 160° |
| 2026-05-07 00:18 | 23.04936 | -82.90616 | 7295 ft | 268 kts | 160° |
| 2026-05-07 00:18 | 23.03185 | -82.90009 | 6918 ft | 266 kts | 161° |
| 2026-05-07 00:19 | 23.01425 | -82.89417 | 6561 ft | 263 kts | 161° |
| 2026-05-07 00:19 | 22.99674 | -82.88840 | 6249 ft | 258 kts | 162° |
| 2026-05-07 00:19 | 22.97972 | -82.88285 | 6005 ft | 254 kts | 162° |
| 2026-05-07 00:19 | 22.96292 | -82.87738 | 5762 ft | 251 kts | 162° |
| 2026-05-07 00:20 | 22.94624 | -82.87194 | 5523 ft | 250 kts | 162° |
| 2026-05-07 00:20 | 22.92962 | -82.86653 | 5283 ft | 250 kts | 162° |
| 2026-05-07 00:20 | 22.91283 | -82.86107 | 5042 ft | 248 kts | 162° |
| 2026-05-07 00:20 | 22.89646 | -82.85574 | 4803 ft | 246 kts | 162° |
| 2026-05-07 00:21 | 22.88004 | -82.85037 | 4561 ft | 246 kts | 162° |
| 2026-05-07 00:21 | 22.86351 | -82.84498 | 4318 ft | 244 kts | 162° |
| 2026-05-07 00:21 | 22.84724 | -82.83956 | 4080 ft | 242 kts | 159° |
| 2026-05-07 00:21 | 22.83253 | -82.83175 | 3978 ft | 230 kts | 141° |
| 2026-05-07 00:22 | 22.82300 | -82.81881 | 3975 ft | 219 kts | 115° |
| 2026-05-07 00:22 | 22.81858 | -82.80305 | 3980 ft | 220 kts | 100° |
| 2026-05-07 00:22 | 22.81818 | -82.78649 | 3920 ft | 222 kts | 82° |
| 2026-05-07 00:22 | 22.82229 | -82.77067 | 3690 ft | 217 kts | 72° |
| 2026-05-07 00:23 | 22.82720 | -82.75536 | 3451 ft | 213 kts | 72° |
| 2026-05-07 00:23 | 22.83177 | -82.74017 | 3221 ft | 208 kts | 73° |
| 2026-05-07 00:23 | 22.83598 | -82.72530 | 2979 ft | 203 kts | 74° |
| 2026-05-07 00:23 | 22.83998 | -82.71089 | 2741 ft | 199 kts | 74° |
| 2026-05-07 00:24 | 22.84388 | -82.69679 | 2502 ft | 195 kts | 74° |
| 2026-05-07 00:24 | 22.84777 | -82.68276 | 2262 ft | 192 kts | 74° |
| 2026-05-07 00:24 | 22.85158 | -82.66905 | 2048 ft | 187 kts | 74° |
| 2026-05-07 00:24 | 22.85529 | -82.65575 | 1982 ft | 179 kts | 74° |
| 2026-05-07 00:25 | 22.85886 | -82.64285 | 1982 ft | 181 kts | 74° |
| 2026-05-07 00:25 | 22.86249 | -82.62978 | 1978 ft | 180 kts | 74° |
| 2026-05-07 00:25 | 22.86609 | -82.61684 | 1979 ft | 181 kts | 74° |
| 2026-05-07 00:25 | 22.86968 | -82.60365 | 1979 ft | 180 kts | 75° |
| 2026-05-07 00:26 | 22.87317 | -82.59071 | 1979 ft | 180 kts | 72° |
| 2026-05-07 00:26 | 22.87830 | -82.57825 | 1981 ft | 181 kts | 62° |
| 2026-05-07 00:26 | 22.88482 | -82.56678 | 1994 ft | 177 kts | 58° |
| 2026-05-07 00:26 | 22.89153 | -82.55606 | 1972 ft | 163 kts | 57° |
| 2026-05-07 00:27 | 22.89793 | -82.54609 | 1996 ft | 160 kts | 57° |
| 2026-05-07 00:27 | 22.90432 | -82.53632 | 1977 ft | 154 kts | 56° |
| 2026-05-07 00:27 | 22.91040 | -82.52721 | 1978 ft | 142 kts | 57° |
| 2026-05-07 00:27 | 22.91613 | -82.51859 | 1983 ft | 141 kts | 56° |
| 2026-05-07 00:28 | 22.92187 | -82.50996 | 1980 ft | 140 kts | 56° |
| 2026-05-07 00:28 | 22.92755 | -82.50141 | 1871 ft | 142 kts | 56° |
| 2026-05-07 00:28 | 22.93328 | -82.49283 | 1684 ft | 138 kts | 56° |
| 2026-05-07 00:28 | 22.93899 | -82.48432 | 1501 ft | 138 kts | 56° |
| 2026-05-07 00:29 | 22.94460 | -82.47591 | 1324 ft | 137 kts | 56° |
| 2026-05-07 00:29 | 22.95018 | -82.46755 | 1153 ft | 137 kts | 55° |
| 2026-05-07 00:30 | 22.96691 | -82.44265 | 645 ft | 135 kts | 53° |
| 2026-05-07 00:30 | 22.97235 | -82.43430 | 453 ft | 132 kts | 54° |
| 2026-05-07 00:30 | 22.97769 | -82.42630 | 286 ft | 132 kts | 53° |
| 2026-05-07 00:30 | 22.98291 | -82.41853 | 220 ft | 113 kts | 53° |
| 2026-05-07 00:31 | 22.98622 | -82.41354 | 214 ft | 58 kts | 54° |
| 2026-05-07 00:31 | 22.98835 | -82.41025 | 210 ft | 51 kts | 53° |
| 2026-05-07 00:31 | 22.99032 | -82.40734 | 208 ft | 41 kts | 54° |
| 2026-05-07 00:31 | 22.99164 | -82.40534 | 207 ft | 24 kts | 53° |
| 2026-05-07 00:32 | 22.99269 | -82.40426 | 209 ft | 17 kts | 7° |
| 2026-05-07 00:32 | 22.99349 | -82.40413 | 210 ft | 6 kts | 9° |
| 2026-05-07 00:32 | 22.99389 | -82.40407 | 211 ft | 4 kts | 7° |
| 2026-05-07 00:32 | 22.99430 | -82.40402 | 212 ft | 7 kts | 6° |
| 2026-05-07 00:33 | 22.99486 | -82.40404 | 213 ft | 9 kts | 339° |
| 2026-05-07 00:33 | 22.99541 | -82.40449 | 214 ft | 9 kts | 320° |
| 2026-05-07 00:33 | 22.99565 | -82.40470 | 214 ft | 3 kts | 321° |
| 2026-05-07 00:33 | 22.99590 | -82.40497 | 215 ft | 7 kts | 298° |
| 2026-05-07 00:34 | 22.99587 | -82.40552 | 215 ft | 7 kts | 279° |
| 2026-05-07 00:34 | 22.99608 | -82.40596 | 215 ft | 5 kts | 300° |
| 2026-05-07 00:34 | 22.99622 | -82.40620 | 215 ft | 1 kts | 300° |
| 2026-05-07 00:34 | 22.99626 | -82.40629 | 216 ft | 0 kts | 300° |
| 2026-05-07 00:35 | 22.99628 | -82.40631 | 216 ft | 0 kts | 300° |